Terminal Aerodrome Forecast
Issued by NWS Denver/Boulder, CO

Home | Current Version | Previous Version | Text Only | Print | Product List | Glossary Off
Versions: 1 2 3 4 5 6 7 8 9 10 11 12 13 14 15 16 17 18 19 20 21 22 23 24 25 26 27 28 29 30 31 32 33 34 35 36 37 38 39 40 41 42 43 44 45 46 47 48 49 50

000
FTUS45 KBOU 161507 AAB
TAFDEN
TAF AMD
KDEN 161507Z 1615/1718 03010KT P6SM BKN150
     FM170200 07008KT P6SM FEW080 BKN140
     FM170400 08007KT P6SM SCT014 BKN140
     FM170600 08007KT P6SM SCT008 BKN014
     FM170800 10006KT 4SM BR BKN005 OVC008 PROB30 1709/1713 1SM
      -FZDZ BR OVC003
     FM171600 13007KT P6SM SCT005 BKN010 OVC018=

USA.gov is the U.S. government's official web portal to all federal, state and local government web resources and services.